Time;durP1;ratioP1;P1;durP2;ratioP2;P2;SDS_P1;SDS_P2;PMS_P1;PMS_P2;Temp;Humidity;BMP_temperature;BMP_pressure;BME280_temperature;BME280_humidity;BME280_pressure;Samples;Min_cycle;Max_cycle;Signal;HPM_P1;HPM_P2
2021/09/02 00:02:23;;;;;;;8.25;4.25;;;13.90;99.90;;;;;;5022542;28;20121;-84
2021/09/02 00:04:49;;;;;;;8.52;4.20;;;14.00;99.90;;;;;;5023436;28;20030;-85
2021/09/02 00:07:15;;;;;;;9.57;4.50;;;14.00;99.90;;;;;;5022889;28;20045;-83
2021/09/02 00:09:40;;;;;;;11.45;3.95;;;13.90;99.90;;;;;;5006555;28;20132;-85
2021/09/02 00:12:06;;;;;;;11.02;4.00;;;14.00;99.90;;;;;;5025468;28;20029;-86
2021/09/02 00:14:32;;;;;;;7.65;4.10;;;13.80;99.90;;;;;;5019035;28;20026;-86
2021/09/02 00:16:57;;;;;;;7.25;4.22;;;13.80;99.90;;;;;;5024577;28;20046;-84
2021/09/02 00:19:23;;;;;;;6.70;4.20;;;13.80;99.90;;;;;;5004627;28;20045;-83
2021/09/02 00:21:49;;;;;;;8.00;5.35;;;13.70;99.90;;;;;;5012837;28;20053;-86
2021/09/02 00:24:15;;;;;;;9.77;5.00;;;13.90;99.90;;;;;;5019325;28;20046;-83
2021/09/02 00:26:42;;;;;;;10.75;4.93;;;13.90;99.90;;;;;;5024138;28;20431;-84
2021/09/02 00:29:08;;;;;;;13.05;5.30;;;13.90;99.90;;;;;;5022188;28;20125;-84
2021/09/02 00:31:34;;;;;;;9.43;4.88;;;13.80;99.90;;;;;;5019571;28;20473;-85
2021/09/02 00:34:00;;;;;;;12.63;5.60;;;13.80;99.90;;;;;;5022710;28;20038;-83
2021/09/02 00:36:25;;;;;;;11.93;4.93;;;13.70;99.90;;;;;;5019042;28;20067;-84
2021/09/02 00:38:51;;;;;;;10.23;5.05;;;13.80;99.90;;;;;;5026507;28;20045;-86
2021/09/02 00:41:17;;;;;;;8.65;5.47;;;13.80;99.90;;;;;;5014638;28;20040;-84
2021/09/02 00:43:43;;;;;;;10.30;4.97;;;13.80;99.90;;;;;;5015598;28;20493;-85
2021/09/02 00:46:17;;;;;;;9.35;5.13;;;13.80;99.90;;;;;;5015244;28;20120;-85
2021/09/02 00:52:30;;;;;;;11.13;5.50;;;13.80;99.90;;;;;;5039151;28;20044;-84
2021/09/02 00:55:03;;;;;;;10.65;5.25;;;13.90;99.90;;;;;;5024125;28;20040;-86
2021/09/02 00:57:31;;;;;;;8.93;5.50;;;13.90;99.90;;;;;;5027733;28;20645;-83
2021/09/02 00:59:58;;;;;;;10.48;5.85;;;13.90;99.90;;;;;;5029742;28;20041;-84
2021/09/02 01:02:28;;;;;;;11.25;5.13;;;14.00;99.90;;;;;;5029446;28;20092;-84
2021/09/02 01:04:56;;;;;;;11.00;6.10;;;14.00;99.90;;;;;;5028144;28;20037;-84
2021/09/02 01:07:27;;;;;;;8.02;5.40;;;13.90;99.90;;;;;;5026901;28;20073;-86
2021/09/02 01:09:54;;;;;;;8.88;5.55;;;14.00;99.90;;;;;;5023682;28;20041;-84
2021/09/02 01:12:33;;;;;;;14.75;5.75;;;14.10;99.90;;;;;;5030244;28;20087;-85
2021/09/02 01:15:11;;;;;;;10.50;5.80;;;14.10;99.90;;;;;;5008610;28;20073;-85
2021/09/02 01:17:45;;;;;;;12.90;5.25;;;14.20;99.90;;;;;;5017696;28;20056;-84
2021/09/02 01:20:14;;;;;;;10.25;5.97;;;14.20;99.90;;;;;;5009286;28;20053;-84
2021/09/02 01:22:41;;;;;;;12.93;6.43;;;14.30;99.90;;;;;;5030040;28;20077;-86
2021/09/02 01:25:10;;;;;;;17.00;6.95;;;14.30;99.90;;;;;;5024306;28;20049;-85
2021/09/02 01:27:36;;;;;;;18.65;7.00;;;14.30;99.90;;;;;;5023921;28;20052;-82
2021/09/02 01:30:07;;;;;;;16.08;7.43;;;14.40;99.90;;;;;;5027425;28;20033;-87
2021/09/02 01:32:35;;;;;;;21.95;8.10;;;14.40;99.90;;;;;;5028268;28;20029;-83
2021/09/02 01:35:01;;;;;;;20.40;7.80;;;14.40;99.90;;;;;;5023684;28;20038;-86
2021/09/02 01:37:56;;;;;;;22.20;8.18;;;14.60;99.90;;;;;;5023617;28;20113;-86
2021/09/02 01:40:36;;;;;;;19.15;8.30;;;14.40;99.90;;;;;;5023620;28;20132;-86
2021/09/02 01:43:04;;;;;;;17.98;7.90;;;14.50;99.90;;;;;;5010280;28;20045;-84
2021/09/02 01:45:30;;;;;;;14.52;7.28;;;14.50;99.90;;;;;;5027111;28;20038;-84
2021/09/02 01:48:01;;;;;;;18.25;6.55;;;14.40;99.90;;;;;;5008681;28;20128;-85
2021/09/02 01:50:30;;;;;;;11.13;6.60;;;14.50;99.90;;;;;;5021679;28;20037;-85
2021/09/02 01:52:58;;;;;;;13.02;6.50;;;14.50;99.90;;;;;;5039885;28;20153;-83
2021/09/02 01:55:24;;;;;;;16.40;6.60;;;14.40;99.90;;;;;;5025710;28;20045;-84
2021/09/02 01:57:51;;;;;;;14.82;6.07;;;14.40;99.90;;;;;;5022135;28;20065;-84
2021/09/02 02:00:18;;;;;;;10.57;5.60;;;14.50;99.90;;;;;;5027475;28;20037;-83
2021/09/02 02:02:44;;;;;;;13.30;5.88;;;14.40;99.90;;;;;;5043114;28;20065;-86
2021/09/02 02:05:10;;;;;;;14.15;6.00;;;14.40;99.90;;;;;;5024186;28;20045;-86
2021/09/02 02:07:38;;;;;;;16.23;6.30;;;14.40;99.90;;;;;;5022967;28;20570;-84
2021/09/02 02:10:06;;;;;;;15.57;6.22;;;14.40;99.90;;;;;;5007679;28;20124;-85
2021/09/02 02:12:31;;;;;;;15.93;6.13;;;14.40;99.90;;;;;;5040811;28;20041;-85
2021/09/02 02:14:57;;;;;;;19.10;6.53;;;14.50;99.90;;;;;;5021755;28;20060;-84
2021/09/02 02:17:23;;;;;;;12.60;5.60;;;14.50;99.90;;;;;;5023774;28;20114;-85
2021/09/02 02:19:48;;;;;;;15.00;6.30;;;14.50;99.90;;;;;;5008461;28;20054;-85
2021/09/02 02:22:14;;;;;;;13.48;6.10;;;14.70;99.90;;;;;;5007198;28;20055;-86
2021/09/02 02:24:40;;;;;;;13.50;6.32;;;14.70;99.90;;;;;;5023538;28;20107;-84
2021/09/02 02:27:05;;;;;;;13.75;5.90;;;14.50;99.90;;;;;;5021011;28;20068;-85
2021/09/02 02:29:31;;;;;;;11.85;6.30;;;14.60;99.90;;;;;;5020937;28;20045;-83
2021/09/02 02:31:57;;;;;;;17.95;6.75;;;14.60;99.90;;;;;;5024007;28;20037;-84
2021/09/02 02:34:23;;;;;;;15.85;6.60;;;14.60;99.90;;;;;;5018832;28;20037;-86
2021/09/02 02:36:48;;;;;;;16.75;6.85;;;14.60;99.90;;;;;;5022888;28;20053;-86
2021/09/02 02:39:14;;;;;;;16.58;7.10;;;14.80;99.90;;;;;;5023492;28;20051;-83
2021/09/02 02:41:40;;;;;;;17.92;6.85;;;14.70;99.90;;;;;;5006558;28;20049;-83
2021/09/02 02:44:06;;;;;;;17.15;7.15;;;14.70;99.90;;;;;;5003390;28;21072;-83
2021/09/02 02:46:32;;;;;;;15.98;6.88;;;14.70;99.90;;;;;;5005264;28;20056;-85
2021/09/02 02:48:58;;;;;;;18.65;7.55;;;14.80;99.90;;;;;;5024635;28;20049;-83
2021/09/02 02:51:24;;;;;;;19.38;7.22;;;14.80;99.90;;;;;;5045403;28;20117;-82
2021/09/02 02:53:49;;;;;;;16.63;7.00;;;14.70;99.90;;;;;;5047866;28;20097;-82
2021/09/02 02:56:15;;;;;;;19.50;6.78;;;14.80;99.90;;;;;;5049237;28;20048;-82
2021/09/02 02:58:41;;;;;;;19.95;7.55;;;14.80;99.90;;;;;;5050928;28;20048;-84
2021/09/02 03:01:07;;;;;;;17.25;7.68;;;14.80;99.90;;;;;;5047868;28;20052;-85
2021/09/02 03:03:32;;;;;;;22.20;7.22;;;14.80;99.90;;;;;;5046062;28;20053;-82
2021/09/02 03:05:58;;;;;;;17.45;7.45;;;14.80;99.90;;;;;;5021008;28;20647;-84
2021/09/02 03:08:24;;;;;;;20.63;7.32;;;14.80;99.90;;;;;;5016224;28;20045;-85
2021/09/02 03:10:50;;;;;;;16.05;6.57;;;15.00;99.90;;;;;;5007349;28;20484;-84
2021/09/02 03:13:15;;;;;;;15.18;7.55;;;14.90;99.90;;;;;;5005572;28;20441;-84
2021/09/02 03:15:41;;;;;;;20.08;7.82;;;14.90;99.90;;;;;;5024424;28;20095;-84
2021/09/02 03:18:22;;;;;;;16.48;7.93;;;14.90;99.90;;;;;;5023846;28;20037;-82
2021/09/02 03:20:48;;;;;;;18.48;8.32;;;14.90;99.90;;;;;;5025589;28;20061;-83
2021/09/02 03:23:14;;;;;;;16.88;7.88;;;14.90;99.90;;;;;;5004000;28;20346;-85
2021/09/02 03:25:39;;;;;;;14.93;7.75;;;14.90;99.90;;;;;;5025077;28;20048;-84
2021/09/02 03:28:05;;;;;;;14.85;7.22;;;14.90;99.90;;;;;;5009484;28;20040;-86
2021/09/02 03:30:31;;;;;;;22.13;8.73;;;14.90;99.90;;;;;;5007655;28;20124;-86
2021/09/02 03:32:56;;;;;;;18.17;8.57;;;14.90;99.90;;;;;;5024392;28;20037;-86
2021/09/02 03:35:22;;;;;;;26.98;11.23;;;15.00;99.90;;;;;;5021016;28;20192;-83
2021/09/02 03:37:48;;;;;;;30.65;12.32;;;15.00;99.90;;;;;;5024573;28;20037;-86
2021/09/02 03:40:14;;;;;;;26.50;13.18;;;15.00;99.90;;;;;;5028722;28;20033;-84
2021/09/02 03:42:41;;;;;;;30.83;13.57;;;15.10;99.90;;;;;;5023440;28;20882;-85
2021/09/02 03:45:08;;;;;;;30.92;12.93;;;15.10;99.90;;;;;;5020933;28;20048;-86
2021/09/02 03:47:34;;;;;;;39.55;13.27;;;15.10;99.90;;;;;;5020595;28;20033;-84
2021/09/02 03:50:00;;;;;;;29.08;13.25;;;15.20;99.90;;;;;;5019997;28;20089;-83
2021/09/02 03:52:26;;;;;;;27.77;12.82;;;15.20;99.90;;;;;;5024948;28;20045;-82
2021/09/02 03:54:52;;;;;;;32.97;13.18;;;15.20;99.90;;;;;;5023839;28;20426;-86
2021/09/02 03:57:17;;;;;;;30.02;12.73;;;15.30;99.90;;;;;;5020760;28;20037;-85
2021/09/02 03:59:43;;;;;;;32.00;11.98;;;15.30;99.90;;;;;;5021743;28;20036;-84
2021/09/02 04:02:08;;;;;;;29.58;10.82;;;15.30;99.90;;;;;;5023018;28;20499;-84
2021/09/02 04:04:34;;;;;;;26.85;10.13;;;15.30;99.90;;;;;;5017941;28;20191;-83
2021/09/02 04:07:00;;;;;;;24.58;9.93;;;15.30;99.90;;;;;;5008190;28;20037;-84
2021/09/02 04:09:25;;;;;;;26.80;9.52;;;15.30;99.90;;;;;;5025221;28;20111;-84
2021/09/02 04:11:51;;;;;;;26.00;9.05;;;15.40;99.90;;;;;;5020411;28;20469;-83
2021/09/02 04:14:17;;;;;;;28.65;8.32;;;15.40;99.90;;;;;;5021125;28;20033;-83
2021/09/02 04:16:42;;;;;;;27.95;9.20;;;15.40;99.90;;;;;;5010603;28;20473;-83
2021/09/02 04:19:08;;;;;;;27.27;9.05;;;15.40;99.90;;;;;;5029496;28;20061;-85
2021/09/02 04:21:34;;;;;;;21.63;8.68;;;15.40;99.90;;;;;;5009822;28;20049;-87
2021/09/02 04:23:59;;;;;;;24.95;9.52;;;15.40;99.90;;;;;;5023841;28;20077;-83
2021/09/02 04:26:25;;;;;;;22.98;9.00;;;15.50;99.90;;;;;;5030179;28;20038;-84
2021/09/02 04:28:51;;;;;;;28.65;9.95;;;15.40;99.90;;;;;;5009054;28;20057;-84
2021/09/02 04:31:16;;;;;;;25.23;9.52;;;15.40;99.90;;;;;;5029443;28;20061;-84
2021/09/02 04:33:42;;;;;;;29.27;9.18;;;15.40;99.90;;;;;;5023437;28;20101;-83
2021/09/02 04:36:08;;;;;;;28.05;9.35;;;15.40;99.90;;;;;;5026754;28;20088;-85
2021/09/02 04:38:33;;;;;;;25.00;9.95;;;15.40;99.90;;;;;;5022617;28;20405;-84
2021/09/02 04:40:59;;;;;;;26.13;8.32;;;15.40;99.90;;;;;;5026447;28;20404;-84
2021/09/02 04:43:25;;;;;;;27.08;8.70;;;15.40;99.90;;;;;;5027286;28;20042;-84
2021/09/02 04:45:50;;;;;;;28.05;8.85;;;15.40;99.90;;;;;;5025161;28;20045;-84
2021/09/02 04:48:18;;;;;;;25.35;8.45;;;15.40;99.90;;;;;;5010768;28;20042;-85
2021/09/02 04:50:47;;;;;;;25.92;9.20;;;15.30;99.90;;;;;;5022590;28;20406;-83
2021/09/02 04:53:13;;;;;;;29.95;8.75;;;15.40;99.90;;;;;;5004954;28;20045;-84
2021/09/02 04:55:39;;;;;;;29.98;8.80;;;15.40;99.90;;;;;;5009747;28;20042;-83
2021/09/02 04:58:06;;;;;;;16.02;7.82;;;15.40;99.90;;;;;;5022953;28;20152;-84
2021/09/02 05:00:33;;;;;;;25.13;8.02;;;15.30;99.90;;;;;;5028544;28;20044;-85
2021/09/02 05:02:58;;;;;;;30.80;8.77;;;15.40;99.90;;;;;;5029372;28;20065;-83
2021/09/02 05:05:24;;;;;;;24.23;8.13;;;15.40;99.90;;;;;;5012509;28;20068;-85
2021/09/02 05:07:50;;;;;;;24.73;8.57;;;15.40;99.90;;;;;;5002485;28;20357;-83
2021/09/02 05:10:15;;;;;;;24.80;8.10;;;15.40;99.90;;;;;;5004775;28;20041;-83
2021/09/02 05:12:41;;;;;;;24.45;7.72;;;15.40;99.90;;;;;;5029858;28;20047;-84
2021/09/02 05:15:07;;;;;;;23.52;7.28;;;15.40;99.90;;;;;;5026259;28;20037;-84
2021/09/02 05:17:33;;;;;;;21.25;7.50;;;15.40;99.90;;;;;;5028363;28;20041;-83
2021/09/02 05:19:59;;;;;;;24.00;7.50;;;15.40;99.90;;;;;;5008200;28;20123;-83
2021/09/02 05:22:25;;;;;;;19.70;7.10;;;15.40;99.90;;;;;;5003720;28;20050;-82
2021/09/02 05:24:51;;;;;;;23.35;5.90;;;15.50;99.90;;;;;;5023101;28;20052;-85
2021/09/02 05:27:16;;;;;;;24.73;7.10;;;15.60;99.90;;;;;;5007695;28;20041;-83
2021/09/02 05:29:42;;;;;;;12.75;5.22;;;15.80;99.90;;;;;;5004088;28;20535;-82
2021/09/02 05:32:09;;;;;;;19.30;5.80;;;15.80;99.90;;;;;;5008043;28;20037;-82
2021/09/02 05:34:34;;;;;;;15.55;5.05;;;15.80;99.90;;;;;;5005021;28;20034;-83
2021/09/02 05:37:00;;;;;;;20.90;6.05;;;16.00;99.90;;;;;;5024521;28;20048;-84
2021/09/02 05:39:26;;;;;;;19.48;5.68;;;16.00;99.90;;;;;;5006631;28;20053;-80
2021/09/02 05:41:52;;;;;;;14.50;5.70;;;16.10;99.90;;;;;;5003998;28;20049;-84
2021/09/02 05:44:17;;;;;;;14.32;5.45;;;16.20;99.90;;;;;;5025234;28;20038;-83
2021/09/02 05:46:44;;;;;;;17.15;5.85;;;16.30;99.90;;;;;;5025767;28;20159;-84
2021/09/02 05:49:13;;;;;;;15.70;5.53;;;16.40;99.90;;;;;;5027147;28;20084;-83
2021/09/02 05:51:38;;;;;;;16.08;5.57;;;16.50;99.90;;;;;;5007297;28;20043;-84
2021/09/02 05:54:04;;;;;;;21.70;6.20;;;16.70;99.90;;;;;;5010635;28;20041;-85
2021/09/02 05:56:30;;;;;;;15.77;4.80;;;16.50;99.90;;;;;;5026644;28;21733;-82
2021/09/02 05:58:55;;;;;;;12.95;5.80;;;16.60;99.90;;;;;;5006846;28;20484;-81
2021/09/02 06:01:24;;;;;;;17.45;6.13;;;16.70;99.90;;;;;;5020802;28;20061;-83
2021/09/02 06:03:50;;;;;;;20.75;6.13;;;16.70;99.90;;;;;;5020943;28;20048;-83
2021/09/02 06:06:15;;;;;;;19.50;5.90;;;16.70;99.90;;;;;;5008523;28;20041;-84
2021/09/02 06:08:41;;;;;;;19.25;5.50;;;16.80;99.90;;;;;;5024193;28;20156;-83
2021/09/02 06:11:07;;;;;;;16.88;5.40;;;16.80;99.90;;;;;;5024134;28;20123;-82
2021/09/02 06:13:33;;;;;;;22.08;5.35;;;16.70;99.90;;;;;;5023435;28;20344;-83
2021/09/02 06:16:02;;;;;;;17.45;5.97;;;16.70;99.90;;;;;;5022975;28;20120;-85
2021/09/02 06:18:28;;;;;;;24.67;6.40;;;16.80;99.90;;;;;;5022156;28;20050;-83
2021/09/02 06:20:55;;;;;;;21.25;6.18;;;16.90;99.90;;;;;;5023528;28;20049;-83
2021/09/02 06:23:21;;;;;;;23.08;5.95;;;16.90;99.90;;;;;;5023542;28;20067;-85
2021/09/02 06:25:47;;;;;;;16.70;5.60;;;16.90;99.90;;;;;;5022299;28;20133;-84
2021/09/02 06:28:13;;;;;;;16.65;5.70;;;16.90;99.90;;;;;;5022941;28;20124;-83
2021/09/02 06:30:39;;;;;;;15.65;5.55;;;16.90;99.90;;;;;;5022125;28;20045;-83
2021/09/02 06:33:05;;;;;;;14.32;5.18;;;17.00;99.90;;;;;;5028560;28;20053;-84
2021/09/02 06:35:31;;;;;;;19.35;5.30;;;17.00;99.90;;;;;;5007855;28;20041;-85
2021/09/02 06:37:57;;;;;;;20.00;6.25;;;16.90;99.90;;;;;;4999489;28;20050;-83
2021/09/02 06:40:23;;;;;;;21.50;5.85;;;17.00;99.90;;;;;;5026814;28;20465;-83
2021/09/02 06:42:48;;;;;;;21.10;6.57;;;17.00;99.90;;;;;;5024462;28;20038;-84
2021/09/02 06:45:14;;;;;;;19.63;5.60;;;17.00;99.90;;;;;;5019645;28;20041;-83
2021/09/02 06:47:44;;;;;;;17.98;5.55;;;17.00;99.90;;;;;;5009699;28;20132;-83
2021/09/02 06:50:12;;;;;;;25.42;6.22;;;17.10;99.90;;;;;;4997928;28;20055;-83
2021/09/02 06:52:40;;;;;;;25.58;6.13;;;17.10;99.90;;;;;;5024953;28;20064;-83
2021/09/02 06:55:07;;;;;;;23.38;6.03;;;17.10;99.90;;;;;;5001917;28;20136;-83
2021/09/02 06:57:33;;;;;;;19.75;5.82;;;17.00;99.90;;;;;;5023932;28;20424;-83
2021/09/02 06:59:59;;;;;;;24.15;6.57;;;17.10;99.90;;;;;;5025303;28;20135;-83
2021/09/02 07:02:25;;;;;;;23.83;5.78;;;16.90;99.90;;;;;;5023141;28;20424;-82
2021/09/02 07:04:51;;;;;;;19.08;6.25;;;16.80;99.90;;;;;;5017615;28;20049;-82
2021/09/02 07:07:18;;;;;;;25.13;6.93;;;16.90;99.90;;;;;;5019346;28;20121;-83
2021/09/02 07:09:44;;;;;;;20.13;6.45;;;16.80;99.90;;;;;;5004999;28;20073;-88
2021/09/02 07:12:10;;;;;;;24.40;6.22;;;16.80;99.90;;;;;;5023090;28;20041;-85
2021/09/02 07:14:35;;;;;;;19.10;6.20;;;16.70;99.90;;;;;;5024914;28;20095;-84
2021/09/02 07:17:01;;;;;;;20.73;5.93;;;16.60;99.90;;;;;;5022438;28;20126;-86
2021/09/02 07:19:27;;;;;;;19.55;6.07;;;16.60;99.90;;;;;;5029130;28;20053;-84
2021/09/02 07:21:53;;;;;;;21.17;6.97;;;16.60;99.90;;;;;;5022390;28;20110;-84
2021/09/02 07:24:19;;;;;;;21.33;6.35;;;16.50;99.90;;;;;;5031410;28;20052;-87
2021/09/02 07:26:45;;;;;;;28.02;6.97;;;16.40;99.90;;;;;;5024817;28;20103;-85
2021/09/02 07:29:12;;;;;;;21.17;6.63;;;16.40;99.90;;;;;;5028781;28;20354;-86
2021/09/02 07:31:41;;;;;;;25.23;7.10;;;16.40;99.90;;;;;;5015297;28;20423;-85
2021/09/02 07:34:07;;;;;;;20.00;7.05;;;16.50;99.90;;;;;;5048149;28;20056;-87
2021/09/02 07:36:34;;;;;;;25.85;6.97;;;16.50;99.90;;;;;;5024528;28;20402;-86
2021/09/02 07:39:00;;;;;;;24.17;6.93;;;16.50;99.90;;;;;;5021911;28;20081;-88
2021/09/02 07:41:26;;;;;;;21.60;7.07;;;16.50;99.90;;;;;;5022677;28;20053;-87
2021/09/02 07:43:52;;;;;;;21.63;7.05;;;16.50;99.90;;;;;;5014496;28;20063;-83
2021/09/02 07:46:17;;;;;;;24.40;7.10;;;16.60;99.90;;;;;;5032476;28;20045;-84
2021/09/02 07:48:46;;;;;;;19.33;6.95;;;16.60;99.90;;;;;;5013608;28;20045;-86
2021/09/02 07:51:13;;;;;;;20.60;6.05;;;16.70;99.90;;;;;;5012199;28;20042;-84
2021/09/02 07:53:39;;;;;;;19.92;6.50;;;16.70;99.90;;;;;;5046828;28;20041;-83
2021/09/02 07:56:05;;;;;;;21.10;6.72;;;16.70;99.90;;;;;;5012894;28;20049;-85
2021/09/02 07:58:30;;;;;;;24.25;6.53;;;16.80;99.90;;;;;;5043701;28;20441;-82
2021/09/02 08:00:56;;;;;;;21.73;6.05;;;16.70;99.90;;;;;;5043019;28;20037;-82
2021/09/02 08:03:42;;;;;;;25.00;6.05;;;16.80;99.90;;;;;;5024491;28;20056;-83
2021/09/02 08:06:08;;;;;;;17.35;6.22;;;16.70;99.90;;;;;;5027551;28;20041;-83
2021/09/02 08:08:34;;;;;;;19.70;6.35;;;16.70;99.90;;;;;;5028144;28;20052;-79
2021/09/02 08:11:00;;;;;;;16.10;6.35;;;16.70;99.90;;;;;;5025447;28;20430;-85
2021/09/02 08:13:25;;;;;;;19.27;6.00;;;16.70;99.90;;;;;;5008585;28;20448;-81
2021/09/02 08:15:53;;;;;;;15.57;6.05;;;16.80;99.90;;;;;;5028491;28;20048;-85
2021/09/02 08:18:18;;;;;;;16.80;6.80;;;16.80;99.90;;;;;;5011333;28;20053;-83
2021/09/02 08:20:44;;;;;;;14.63;5.78;;;16.90;99.90;;;;;;5024600;28;20057;-81
2021/09/02 08:23:10;;;;;;;18.00;5.45;;;16.90;99.90;;;;;;5021423;28;20049;-80
2021/09/02 08:25:36;;;;;;;18.58;5.78;;;16.90;99.90;;;;;;5009285;28;20041;-82
2021/09/02 08:28:03;;;;;;;13.88;5.40;;;17.00;99.90;;;;;;5005112;28;20101;-83
2021/09/02 08:30:29;;;;;;;21.15;6.05;;;17.10;99.90;;;;;;5021794;28;20057;-87
2021/09/02 08:32:56;;;;;;;15.73;6.00;;;17.10;99.90;;;;;;5022700;28;20050;-85
2021/09/02 08:35:24;;;;;;;16.25;6.10;;;17.00;99.90;;;;;;5018964;28;20136;-84
2021/09/02 08:37:51;;;;;;;21.33;5.65;;;17.10;99.90;;;;;;5023974;28;20092;-83
2021/09/02 08:40:19;;;;;;;20.70;6.28;;;17.20;99.90;;;;;;5020507;28;20124;-81
2021/09/02 08:42:46;;;;;;;16.08;5.55;;;17.30;99.90;;;;;;5001230;28;20490;-83
2021/09/02 08:45:13;;;;;;;20.77;5.72;;;17.30;99.90;;;;;;5003255;28;20036;-81
2021/09/02 08:47:42;;;;;;;23.10;6.57;;;17.40;99.90;;;;;;5020769;28;20057;-81
2021/09/02 08:50:09;;;;;;;15.15;6.13;;;17.40;99.90;;;;;;5001487;28;20037;-79
2021/09/02 08:52:34;;;;;;;18.73;5.75;;;17.50;99.90;;;;;;5020345;28;20038;-79
2021/09/02 08:55:02;;;;;;;13.57;4.75;;;17.60;99.90;;;;;;5021574;28;20050;-79
2021/09/02 08:57:28;;;;;;;16.02;4.65;;;18.30;99.90;;;;;;5021390;28;20080;-78
2021/09/02 08:59:54;;;;;;;10.57;4.85;;;18.70;99.90;;;;;;5026742;28;20092;-77
2021/09/02 09:02:28;;;;;;;10.73;4.50;;;18.80;99.90;;;;;;5041120;28;20041;-79
2021/09/02 09:05:06;;;;;;;15.48;4.80;;;18.90;99.90;;;;;;5002617;28;20068;-78
2021/09/02 09:07:35;;;;;;;18.90;5.07;;;19.10;99.90;;;;;;5009807;28;20084;-79
2021/09/02 09:10:01;;;;;;;17.77;5.10;;;19.20;99.90;;;;;;5007703;28;20049;-78
2021/09/02 09:12:38;;;;;;;10.35;4.40;;;19.20;99.90;;;;;;5002328;28;20096;-82
2021/09/02 09:15:07;;;;;;;13.05;5.38;;;19.00;99.90;;;;;;5022719;28;20050;-79
2021/09/02 09:17:33;;;;;;;15.25;5.38;;;18.90;99.90;;;;;;5008211;28;20368;-78
2021/09/02 09:19:59;;;;;;;12.50;5.35;;;18.90;99.90;;;;;;5006092;28;20049;-79
2021/09/02 09:22:29;;;;;;;13.63;5.95;;;18.90;99.90;;;;;;5020568;28;20045;-79
2021/09/02 09:25:03;;;;;;;14.65;5.57;;;18.80;99.90;;;;;;5039739;28;20178;-79
2021/09/02 09:27:44;;;;;;;;;;;18.60;99.90;;;;;;5020453;28;20060;-80
2021/09/02 09:30:19;;;;;;;14.38;5.15;;;18.70;99.90;;;;;;5025362;28;19925;-78
2021/09/02 09:32:48;;;;;;;20.95;5.38;;;18.80;99.90;;;;;;5022765;28;20061;-79
2021/09/02 09:35:16;;;;;;;11.98;5.15;;;18.90;99.90;;;;;;5005300;28;20049;-77
2021/09/02 09:37:42;;;;;;;15.15;5.18;;;18.70;99.90;;;;;;5020294;28;20045;-78
2021/09/02 09:40:19;;;;;;;12.80;5.20;;;18.60;99.90;;;;;;5024508;28;20118;-76
2021/09/02 09:43:08;;;;;;;12.95;4.78;;;18.60;99.90;;;;;;5003388;28;20058;-78
2021/09/02 09:45:38;;;;;;;13.43;5.15;;;18.60;99.90;;;;;;5036468;28;20064;-78
2021/09/02 09:48:05;;;;;;;12.88;5.35;;;18.80;99.90;;;;;;5018394;28;20065;-78
2021/09/02 09:50:31;;;;;;;13.15;4.80;;;18.90;99.90;;;;;;5019672;28;20602;-79
2021/09/02 09:52:57;;;;;;;11.70;4.90;;;18.80;99.90;;;;;;5021845;28;20057;-78
2021/09/02 09:55:22;;;;;;;13.18;5.40;;;18.90;99.90;;;;;;5001132;28;20052;-79
2021/09/02 09:57:48;;;;;;;13.77;5.40;;;19.00;99.90;;;;;;5019925;28;20056;-78
2021/09/02 10:00:17;;;;;;;18.48;5.60;;;18.80;99.90;;;;;;5020580;28;20053;-78
2021/09/02 10:02:45;;;;;;;11.52;4.90;;;18.50;99.90;;;;;;5021242;28;20056;-78
2021/09/02 10:05:14;;;;;;;14.05;5.47;;;18.40;99.90;;;;;;5022428;28;20049;-77
2021/09/02 10:07:42;;;;;;;19.08;5.53;;;18.50;99.90;;;;;;5019887;28;20156;-81
2021/09/02 10:10:09;;;;;;;14.55;4.90;;;18.50;99.90;;;;;;5028454;28;20049;-82
2021/09/02 10:12:35;;;;;;;10.95;4.70;;;18.30;99.90;;;;;;5007033;28;20053;-82
2021/09/02 10:15:06;;;;;;;17.10;5.07;;;18.30;99.90;;;;;;5040378;28;20155;-82
2021/09/02 10:17:33;;;;;;;15.48;5.40;;;18.30;99.90;;;;;;5000414;28;20054;-84
2021/09/02 10:20:01;;;;;;;11.02;5.43;;;18.20;99.90;;;;;;5002923;28;20054;-84
2021/09/02 10:22:28;;;;;;;13.13;5.63;;;18.30;99.90;;;;;;4995307;28;20129;-85
2021/09/02 10:24:54;;;;;;;16.25;5.90;;;18.40;99.90;;;;;;4998883;28;20120;-81
2021/09/02 10:27:22;;;;;;;14.68;5.57;;;18.40;99.90;;;;;;4981924;28;20401;-82
2021/09/02 10:29:52;;;;;;;18.30;6.50;;;18.40;99.90;;;;;;4993785;28;20054;-84
2021/09/02 10:32:26;;;;;;;12.50;5.63;;;18.40;99.90;;;;;;4984487;28;20366;-85
2021/09/02 10:34:57;;;;;;;12.00;5.38;;;18.40;99.90;;;;;;4992441;28;20141;-82
2021/09/02 10:37:49;;;;;;;16.48;5.78;;;18.50;99.90;;;;;;5001252;28;20497;-84
2021/09/02 10:40:18;;;;;;;15.85;5.60;;;18.60;99.90;;;;;;4999091;28;20050;-84
2021/09/02 10:42:54;;;;;;;15.95;5.30;;;18.50;99.90;;;;;;5009052;28;20486;-85
2021/09/02 10:45:26;;;;;;;12.38;5.65;;;18.60;99.90;;;;;;4984496;28;20050;-83
2021/09/02 10:47:53;;;;;;;14.23;5.93;;;18.70;99.90;;;;;;5009254;28;20057;-84
2021/09/02 10:50:21;;;;;;;17.55;5.65;;;18.80;99.90;;;;;;4989342;28;20128;-83
2021/09/02 10:52:47;;;;;;;16.48;5.28;;;18.90;99.90;;;;;;4995084;28;20113;-82
2021/09/02 10:55:27;;;;;;;14.77;5.38;;;18.80;99.90;;;;;;5028629;28;20128;-81
2021/09/02 10:57:52;;;;;;;12.32;4.93;;;18.80;99.90;;;;;;4995724;28;20069;-84
2021/09/02 11:00:36;;;;;;;17.25;6.00;;;18.80;99.90;;;;;;4997025;28;20480;-82
2021/09/02 11:03:15;;;;;;;9.65;5.18;;;18.90;99.90;;;;;;4997083;28;20898;-84
2021/09/02 11:05:42;;;;;;;14.15;5.75;;;18.90;99.90;;;;;;5006760;28;20512;-83
2021/09/02 11:08:09;;;;;;;13.13;5.13;;;19.00;99.90;;;;;;4992918;28;20053;-84
2021/09/02 11:10:35;;;;;;;16.80;5.88;;;19.00;99.90;;;;;;5006783;28;20037;-82
2021/09/02 11:13:06;;;;;;;13.68;5.53;;;18.90;99.90;;;;;;5000497;28;20834;-84
2021/09/02 11:15:35;;;;;;;13.75;5.22;;;19.00;99.90;;;;;;5001785;28;20056;-82
2021/09/02 11:18:05;;;;;;;15.70;5.65;;;19.00;99.90;;;;;;4991104;28;20466;-81
2021/09/02 11:20:35;;;;;;;14.82;5.90;;;18.90;99.90;;;;;;5006112;28;20412;-80
2021/09/02 11:23:10;;;;;;;16.08;5.38;;;18.90;99.90;;;;;;4985143;28;20168;-78
2021/09/02 11:25:45;;;;;;;13.07;5.45;;;19.10;99.90;;;;;;5001469;28;20555;-82
2021/09/02 11:28:11;;;;;;;13.63;4.78;;;19.00;99.90;;;;;;5017450;28;20049;-80
2021/09/02 11:30:37;;;;;;;15.70;5.35;;;19.00;99.90;;;;;;4996756;28;20053;-80
2021/09/02 11:33:06;;;;;;;12.55;5.47;;;19.10;99.90;;;;;;4986285;28;20100;-79
2021/09/02 11:35:32;;;;;;;7.80;4.50;;;19.20;99.90;;;;;;4983151;28;20100;-79
2021/09/02 11:37:58;;;;;;;11.52;4.72;;;19.60;99.90;;;;;;4999192;28;20042;-80
2021/09/02 11:40:33;;;;;;;13.40;4.97;;;19.60;99.90;;;;;;4998711;28;20060;-80
2021/09/02 11:43:00;;;;;;;11.95;4.80;;;19.70;99.90;;;;;;5016957;28;20058;-78
2021/09/02 11:45:29;;;;;;;13.10;4.80;;;19.90;99.90;;;;;;5014151;28;20076;-80
2021/09/02 11:48:01;;;;;;;14.68;5.13;;;19.90;99.90;;;;;;4999519;28;20378;-80
2021/09/02 11:50:26;;;;;;;12.30;4.95;;;19.80;99.90;;;;;;4997217;28;20052;-81
2021/09/02 11:52:53;;;;;;;13.30;5.18;;;20.10;99.90;;;;;;4998480;28;20034;-81
2021/09/02 11:55:32;;;;;;;11.40;5.43;;;20.00;99.90;;;;;;5001636;28;20037;-80
2021/09/02 11:58:04;;;;;;;12.18;5.22;;;19.90;99.90;;;;;;5002135;28;20515;-80
2021/09/02 12:00:31;;;;;;;9.00;5.15;;;20.10;99.90;;;;;;4983625;28;20046;-79
2021/09/02 12:02:59;;;;;;;15.45;5.05;;;20.10;99.90;;;;;;5003407;28;20069;-80
2021/09/02 12:05:29;;;;;;;15.10;5.68;;;20.20;99.90;;;;;;5004813;28;20049;-81
2021/09/02 12:07:57;;;;;;;10.10;4.68;;;20.20;99.90;;;;;;5007767;28;20188;-80
2021/09/02 12:10:23;;;;;;;12.50;5.47;;;20.50;99.90;;;;;;4986777;28;20074;-79
2021/09/02 12:12:49;;;;;;;9.98;4.90;;;20.50;99.90;;;;;;5001323;28;20085;-81
2021/09/02 12:15:33;;;;;;;11.00;5.75;;;20.40;99.90;;;;;;4982601;28;20054;-82
2021/09/02 12:18:11;;;;;;;11.70;5.50;;;20.00;99.90;;;;;;5001677;28;20062;-82
2021/09/02 12:20:39;;;;;;;13.13;5.68;;;19.80;99.90;;;;;;5017840;28;21601;-83
2021/09/02 12:23:23;;;;;;;9.55;5.30;;;19.50;99.90;;;;;;5016652;28;20078;-82
2021/09/02 12:25:56;;;;;;;10.85;5.40;;;19.30;99.90;;;;;;4994735;28;20041;-82
2021/09/02 12:28:30;;;;;;;10.60;5.30;;;19.40;99.90;;;;;;5022635;28;20129;-82
2021/09/02 12:30:56;;;;;;;11.20;5.57;;;19.30;99.90;;;;;;5023470;28;20160;-82
2021/09/02 12:33:21;;;;;;;10.82;5.75;;;19.40;99.90;;;;;;5016735;28;20117;-82
2021/09/02 12:35:47;;;;;;;15.20;5.95;;;19.50;99.90;;;;;;5007535;28;20141;-82
2021/09/02 12:38:39;;;;;;;12.85;5.95;;;19.60;99.90;;;;;;5018963;28;20426;-82
2021/09/02 12:41:16;;;;;;;11.65;5.47;;;19.50;99.90;;;;;;4983183;28;20423;-82
2021/09/02 12:44:09;;;;;;;10.68;5.70;;;19.50;99.90;;;;;;4948046;28;20085;-82
2021/09/02 12:47:04;;;;;;;14.55;5.10;;;19.60;99.90;;;;;;4970765;28;20140;-82